createdAt,value
2019-01-15T00:00:14.993Z,1.71
2019-01-15T00:05:16.443Z,1.45
2019-01-15T00:10:18.812Z,1.87
2019-01-15T00:15:18.706Z,1.32
2019-01-15T00:20:29.201Z,1.75
2019-01-15T00:25:29.729Z,1.99
2019-01-15T00:30:28.536Z,1.74
2019-01-15T00:35:39.545Z,1.91
2019-01-15T00:40:39.719Z,1.61
2019-01-15T00:45:39.109Z,1.81
2019-01-15T00:50:49.584Z,1.85
2019-01-15T00:55:51.115Z,1.67
2019-01-15T01:00:50.757Z,1.50
2019-01-15T01:06:01.206Z,1.65
2019-01-15T01:11:04.330Z,1.72
2019-01-15T01:16:04.350Z,1.50
2019-01-15T01:21:08.412Z,1.50
2019-01-15T01:26:09.042Z,1.54
2019-01-15T01:31:10.721Z,1.38
2019-01-15T01:36:11.666Z,1.52
2019-01-15T01:41:11.976Z,1.50
2019-01-15T01:46:24.494Z,1.67
2019-01-15T01:51:12.031Z,1.70
2019-01-15T01:56:28.402Z,2.01
2019-01-15T02:01:29.945Z,2.11
2019-01-15T02:06:32.580Z,1.82
2019-01-15T02:11:39.530Z,2.32
2019-01-15T02:16:39.542Z,2.18
2019-01-15T02:21:42.564Z,2.27
2019-01-15T02:26:45.321Z,2.50
2019-01-15T02:31:49.936Z,2.58
2019-01-15T02:36:50.307Z,2.10
2019-01-15T02:41:53.019Z,2.12
2019-01-15T02:46:56.062Z,2.58
2019-01-15T02:51:54.408Z,2.80
2019-01-15T02:57:03.422Z,3.41
2019-01-15T03:02:15.515Z,2.84
2019-01-15T03:07:16.082Z,2.53
2019-01-15T03:12:18.716Z,2.82
2019-01-15T03:17:19.551Z,2.67
2019-01-15T03:22:23.715Z,2.61
2019-01-15T03:27:23.015Z,2.38
2019-01-15T03:32:34.578Z,3.24
2019-01-15T03:37:34.944Z,3.22
2019-01-15T03:42:37.567Z,3.12
2019-01-15T03:47:37.342Z,2.87
2019-01-15T03:52:45.676Z,3.32
2019-01-15T03:57:58.724Z,3.19
2019-01-15T04:03:04.385Z,3.29
2019-01-15T04:08:03.739Z,3.73
2019-01-15T04:13:13.797Z,3.32
2019-01-15T04:18:23.858Z,3.60
2019-01-15T04:23:35.460Z,3.79
2019-01-15T04:28:26.113Z,3.10
2019-01-15T04:33:34.521Z,3.02
2019-01-15T04:38:43.944Z,3.48
2019-01-15T04:43:42.613Z,3.62
2019-01-15T04:48:53.451Z,4.00
2019-01-15T04:53:52.335Z,3.44
2019-01-15T04:59:01.275Z,3.88
2019-01-15T05:04:13.374Z,3.95
2019-01-15T05:09:14.259Z,4.30
2019-01-15T05:14:13.996Z,4.49
2019-01-15T05:19:25.619Z,4.12
2019-01-15T05:24:25.320Z,4.51
2019-01-15T05:29:35.282Z,4.20
2019-01-15T05:34:55.883Z,4.47
2019-01-15T05:39:54.813Z,4.22
2019-01-15T05:44:59.261Z,4.14
2019-01-15T05:50:02.045Z,4.58
2019-01-15T05:55:06.998Z,5.12
2019-01-15T06:00:11.556Z,4.49
2019-01-15T06:05:20.441Z,4.45
2019-01-15T06:10:25.611Z,4.46
2019-01-15T06:15:25.691Z,4.31
2019-01-15T06:20:33.719Z,4.03
2019-01-15T06:25:33.215Z,4.71
2019-01-15T06:30:33.080Z,4.58
2019-01-15T06:35:43.306Z,4.13
2019-01-15T06:40:44.551Z,4.39
2019-01-15T06:45:43.691Z,4.42
2019-01-15T06:50:56.670Z,3.88
2019-01-15T06:55:56.953Z,4.07
2019-01-15T07:01:00.035Z,3.96
2019-01-15T07:06:00.190Z,3.87
2019-01-15T07:11:09.608Z,3.47
2019-01-15T07:16:10.635Z,3.76
2019-01-15T07:21:11.585Z,3.46
2019-01-15T07:26:11.065Z,3.37
2019-01-15T07:31:23.287Z,3.23
2019-01-15T07:36:26.405Z,3.12
2019-01-15T07:41:31.585Z,3.29
2019-01-15T07:46:36.107Z,2.86
2019-01-15T07:51:36.816Z,3.04
2019-01-15T07:56:36.441Z,3.49
2019-01-15T08:01:50.029Z,4.06
2019-01-15T08:06:52.877Z,11.94
2019-01-15T08:11:59.236Z,12.84
2019-01-15T08:17:00.031Z,13.19
2019-01-15T08:22:02.996Z,14.88
2019-01-15T08:27:09.474Z,14.91
2019-01-15T08:32:13.725Z,11.79
2019-01-15T08:37:13.501Z,11.19
2019-01-15T08:42:19.295Z,9.09
2019-01-15T08:47:18.964Z,7.97
2019-01-15T08:52:27.799Z,6.33
2019-01-15T08:57:42.286Z,5.45
2019-01-15T09:02:46.219Z,5.31
2019-01-15T09:07:46.201Z,6.86
2019-01-15T09:12:54.097Z,5.49
2019-01-15T09:17:54.076Z,5.17
2019-01-15T09:22:58.460Z,5.09
2019-01-15T09:27:58.217Z,6.74
2019-01-15T09:33:00.816Z,5.79
2019-01-15T09:38:00.860Z,5.42
2019-01-15T09:43:04.704Z,5.22
2019-01-15T09:48:08.402Z,5.41
2019-01-15T09:53:10.257Z,5.88
2019-01-15T09:58:09.976Z,4.18
2019-01-15T10:03:24.292Z,2.66
2019-01-15T10:08:22.818Z,4.48
2019-01-15T10:13:32.633Z,1.63
2019-01-15T10:18:41.789Z,2.45
2019-01-15T10:23:52.196Z,2.63
2019-01-15T10:28:50.804Z,1.46
2019-01-15T10:34:10.732Z,1.83
2019-01-15T10:39:09.619Z,1.30
2019-01-15T10:44:22.006Z,1.08
2019-01-15T10:49:23.040Z,1.23
2019-01-15T10:54:23.094Z,0.99
2019-01-15T10:59:31.551Z,0.87
2019-01-15T11:04:42.100Z,1.06
2019-01-15T11:09:46.681Z,0.97
2019-01-15T11:14:55.849Z,0.70
2019-01-15T11:19:48.961Z,0.99
2019-01-15T11:24:54.431Z,0.94
2019-01-15T11:29:59.688Z,1.88
2019-01-15T11:35:04.724Z,1.27
2019-01-15T11:40:05.070Z,1.88
2019-01-15T11:45:04.261Z,3.48
2019-01-15T11:50:14.773Z,2.65
2019-01-15T11:55:21.312Z,1.87
2019-01-15T12:00:20.650Z,1.59
2019-01-15T12:05:26.241Z,1.81
2019-01-15T12:10:26.735Z,1.30
2019-01-15T12:15:30.036Z,1.84
2019-01-15T12:20:31.197Z,8.03
2019-01-15T12:25:32.448Z,25.43
2019-01-15T12:30:39.928Z,5.07
2019-01-15T12:35:41.264Z,1.86
2019-01-15T12:40:41.511Z,1.28
2019-01-15T12:45:42.213Z,2.58
2019-01-15T12:50:46.423Z,1.62
2019-01-15T12:55:46.380Z,1.98
2019-01-15T13:00:55.280Z,2.54
2019-01-15T13:06:04.234Z,2.24
2019-01-15T13:11:22.731Z,4.78
2019-01-15T13:16:23.761Z,4.27
2019-01-15T13:21:26.103Z,4.18
2019-01-15T13:26:28.348Z,4.19
2019-01-15T13:31:27.091Z,3.81
2019-01-15T13:36:45.414Z,3.14
2019-01-15T13:41:46.662Z,1.45
2019-01-15T13:46:47.965Z,3.65
2019-01-15T13:51:54.445Z,3.91
2019-01-15T13:56:58.404Z,3.36
2019-01-15T14:02:01.643Z,2.87
2019-01-15T14:07:07.706Z,3.30
2019-01-15T14:12:22.062Z,4.52
2019-01-15T14:17:10.912Z,4.26
2019-01-15T14:22:10.388Z,4.28
2019-01-15T14:27:25.030Z,4.35
2019-01-15T14:32:35.621Z,4.34
2019-01-15T14:37:25.978Z,5.18
2019-01-15T14:42:30.795Z,5.22
2019-01-15T14:47:30.283Z,5.71
2019-01-15T14:52:30.629Z,4.73
2019-01-15T14:57:31.358Z,4.29
2019-01-15T15:02:48.821Z,4.92
2019-01-15T15:07:38.835Z,7.18
2019-01-15T15:12:48.774Z,9.34
2019-01-15T15:17:49.394Z,5.98
2019-01-15T15:22:49.840Z,6.73
2019-01-15T15:27:48.605Z,4.70
2019-01-15T15:32:58.937Z,4.54
2019-01-15T15:37:58.785Z,5.45
2019-01-15T15:43:10.140Z,4.81
2019-01-15T15:48:08.800Z,5.30
2019-01-15T15:53:19.961Z,7.46
2019-01-15T15:58:21.255Z,7.43
2019-01-15T16:03:23.795Z,6.93
2019-01-15T16:08:23.397Z,7.00
2019-01-15T16:13:35.681Z,7.80
2019-01-15T16:18:35.353Z,9.61
2019-01-15T16:23:35.463Z,7.79
2019-01-15T16:28:43.794Z,6.14
2019-01-15T16:33:54.068Z,6.31
2019-01-15T16:38:53.389Z,5.49
2019-01-15T16:44:02.724Z,7.07
2019-01-15T16:49:12.029Z,7.67
2019-01-15T16:54:21.779Z,10.35
2019-01-15T16:59:37.942Z,11.90
2019-01-15T17:04:38.386Z,11.56
2019-01-15T17:09:38.584Z,14.83
2019-01-15T17:14:38.454Z,11.30
2019-01-15T17:19:49.369Z,10.69
2019-01-15T17:24:55.980Z,14.61
2019-01-15T17:29:57.465Z,15.48
2019-01-15T17:34:58.331Z,15.84
2019-01-15T17:39:58.680Z,26.57
2019-01-15T17:44:57.504Z,29.68
2019-01-15T17:50:22.090Z,21.94
2019-01-15T17:55:12.622Z,16.76
2019-01-15T18:00:17.046Z,13.95
2019-01-15T18:05:20.786Z,14.64
2019-01-15T18:10:26.086Z,13.94
2019-01-15T18:15:31.144Z,18.93
2019-01-15T18:20:33.921Z,17.26
2019-01-15T18:25:34.694Z,11.56
2019-01-15T18:30:39.138Z,11.30
2019-01-15T18:35:37.361Z,17.54
2019-01-15T18:40:48.259Z,17.04
2019-01-15T18:45:49.648Z,18.50
2019-01-15T18:50:51.107Z,21.53
2019-01-15T18:55:51.899Z,17.35
2019-01-15T19:00:53.154Z,33.56
2019-01-15T19:05:53.362Z,18.69
2019-01-15T19:10:58.772Z,19.69
2019-01-15T19:16:01.755Z,17.23
2019-01-15T19:21:02.786Z,25.88
2019-01-15T19:26:02.010Z,19.94
2019-01-15T19:31:14.595Z,22.77
2019-01-15T19:36:16.794Z,18.15
2019-01-15T19:41:18.607Z,24.21
2019-01-15T19:46:20.728Z,21.12
2019-01-15T19:51:24.035Z,19.21
2019-01-15T19:56:27.004Z,19.07
2019-01-15T20:01:24.629Z,18.61
2019-01-15T20:06:34.712Z,14.20
2019-01-15T20:11:35.090Z,19.05
2019-01-15T20:16:36.852Z,18.72
2019-01-15T20:21:36.264Z,21.02
2019-01-15T20:26:38.153Z,18.67
2019-01-15T20:31:37.875Z,18.51
2019-01-15T20:36:39.365Z,19.42
2019-01-15T20:41:40.341Z,19.34
2019-01-15T20:46:42.974Z,25.06
2019-01-15T20:51:44.259Z,17.44
2019-01-15T20:56:43.493Z,24.22
2019-01-15T21:01:56.018Z,14.61
2019-01-15T21:06:57.585Z,13.14
2019-01-15T21:12:07.017Z,10.10
2019-01-15T21:17:07.035Z,9.45
2019-01-15T21:22:08.698Z,9.97
2019-01-15T21:27:12.934Z,10.14
2019-01-15T21:32:13.680Z,11.83
2019-01-15T21:37:22.708Z,13.79
2019-01-15T21:42:28.097Z,10.70
2019-01-15T21:47:30.637Z,9.96
2019-01-15T21:52:33.350Z,9.17
2019-01-15T21:57:33.228Z,9.95
2019-01-15T22:02:55.101Z,13.39
2019-01-15T22:07:43.995Z,10.26
2019-01-15T22:13:03.696Z,9.14
2019-01-15T22:18:01.463Z,9.03
2019-01-15T22:23:15.500Z,10.71
2019-01-15T22:28:16.362Z,8.47
2019-01-15T22:33:17.014Z,7.89
2019-01-15T22:38:16.143Z,7.35
2019-01-15T22:43:25.352Z,7.28
2019-01-15T22:48:34.540Z,7.58
2019-01-15T22:53:43.007Z,7.40
2019-01-15T22:58:53.622Z,7.24
2019-01-15T23:04:04.463Z,7.46
2019-01-15T23:09:05.896Z,8.32
2019-01-15T23:14:07.208Z,8.86
2019-01-15T23:19:05.725Z,8.32
2019-01-15T23:24:14.815Z,8.11
2019-01-15T23:29:24.532Z,8.30
2019-01-15T23:34:35.150Z,7.26
2019-01-15T23:39:35.034Z,6.60
2019-01-15T23:44:53.844Z,6.88
2019-01-15T23:49:53.641Z,7.39
2019-01-15T23:55:02.729Z,7.51
